createdAt,value
2023-03-29T00:02:09.237Z,4.00
2023-03-29T00:04:36.311Z,4.00
2023-03-29T00:07:04.489Z,4.00
2023-03-29T00:09:33.225Z,3.50
2023-03-29T00:12:01.485Z,4.00
2023-03-29T00:14:30.512Z,4.00
2023-03-29T00:16:59.193Z,4.00
2023-03-29T00:19:26.181Z,4.10
2023-03-29T00:21:53.130Z,4.10
2023-03-29T00:24:21.235Z,4.10
2023-03-29T00:26:48.390Z,4.10
2023-03-29T00:29:15.412Z,4.10
2023-03-29T00:31:42.363Z,4.10
2023-03-29T00:34:09.244Z,4.10
2023-03-29T00:36:35.970Z,4.10
2023-03-29T00:39:02.766Z,4.10
2023-03-29T00:41:29.603Z,4.10
2023-03-29T00:44:03.031Z,4.10
2023-03-29T00:46:32.360Z,4.10
2023-03-29T00:49:08.749Z,4.10
2023-03-29T00:51:41.239Z,4.20
2023-03-29T00:54:14.649Z,4.20
2023-03-29T00:56:49.698Z,4.20
2023-03-29T00:59:22.761Z,4.20
2023-03-29T01:01:58.463Z,4.20
2023-03-29T01:04:48.153Z,4.20
2023-03-29T01:07:48.039Z,4.20
2023-03-29T01:10:23.398Z,4.20
2023-03-29T01:12:59.200Z,4.20
2023-03-29T01:15:28.585Z,4.20
2023-03-29T01:17:58.024Z,4.20
2023-03-29T01:20:34.128Z,4.20
2023-03-29T01:23:13.988Z,4.20
2023-03-29T01:26:06.590Z,4.10
2023-03-29T01:29:09.606Z,4.10
2023-03-29T01:31:47.009Z,4.10
2023-03-29T01:34:33.224Z,4.10
2023-03-29T01:37:12.537Z,4.10
2023-03-29T01:39:39.623Z,4.10
2023-03-29T01:42:42.416Z,4.20
2023-03-29T01:45:24.817Z,4.20
2023-03-29T01:48:29.934Z,4.10
2023-03-29T01:51:29.237Z,4.20
2023-03-29T01:54:04.555Z,4.20
2023-03-29T01:56:39.404Z,4.20
2023-03-29T01:59:16.005Z,4.20
2023-03-29T02:01:50.414Z,4.20
2023-03-29T02:04:27.575Z,4.20
2023-03-29T02:06:57.449Z,4.20
2023-03-29T02:09:24.412Z,4.20
2023-03-29T02:11:53.255Z,4.20
2023-03-29T02:14:19.953Z,4.20
2023-03-29T02:16:46.697Z,4.10
2023-03-29T02:19:15.191Z,4.00
2023-03-29T02:22:04.003Z,4.10
2023-03-29T02:24:34.419Z,4.00
2023-03-29T02:27:01.400Z,4.10
2023-03-29T02:29:28.322Z,4.10
2023-03-29T02:32:00.102Z,4.10
2023-03-29T02:35:04.519Z,4.10
2023-03-29T02:37:34.410Z,4.00
2023-03-29T02:40:07.892Z,4.00
2023-03-29T02:42:35.593Z,3.90
2023-03-29T02:45:04.873Z,3.90
2023-03-29T02:47:38.579Z,3.80
2023-03-29T02:50:07.378Z,3.80
2023-03-29T02:52:42.949Z,3.80
2023-03-29T02:55:17.127Z,3.70
2023-03-29T02:57:44.037Z,3.70
2023-03-29T03:00:12.265Z,3.80
2023-03-29T03:02:39.043Z,3.80
2023-03-29T03:05:06.292Z,3.80
2023-03-29T03:07:33.705Z,3.80
2023-03-29T03:10:00.862Z,3.80
2023-03-29T03:12:27.658Z,3.80
2023-03-29T03:14:54.562Z,3.80
2023-03-29T03:17:22.925Z,3.80
2023-03-29T03:19:49.779Z,3.80
2023-03-29T03:22:16.555Z,3.80
2023-03-29T03:24:43.379Z,3.80
2023-03-29T03:27:10.099Z,3.80
2023-03-29T03:29:38.430Z,3.80
2023-03-29T03:32:05.684Z,3.80
2023-03-29T03:34:34.471Z,3.80
2023-03-29T03:37:03.748Z,3.80
2023-03-29T03:39:30.587Z,3.80
2023-03-29T03:41:57.343Z,3.80
2023-03-29T03:44:24.094Z,3.80
2023-03-29T03:46:50.936Z,3.80
2023-03-29T03:49:17.670Z,3.80
2023-03-29T03:51:45.357Z,3.80
2023-03-29T03:54:12.365Z,3.80
2023-03-29T03:56:39.444Z,3.80
2023-03-29T03:59:07.044Z,3.80
2023-03-29T04:01:35.479Z,3.80
2023-03-29T04:04:02.885Z,3.80
2023-03-29T04:06:30.585Z,3.80
2023-03-29T04:08:57.851Z,3.80
2023-03-29T04:11:24.568Z,3.80
2023-03-29T04:13:51.591Z,3.80
2023-03-29T04:16:18.438Z,3.80
2023-03-29T04:18:45.353Z,3.80
2023-03-29T04:21:12.323Z,3.80
2023-03-29T04:23:39.041Z,3.70
2023-03-29T04:26:06.386Z,3.70
2023-03-29T04:28:33.172Z,3.70
2023-03-29T04:31:00.080Z,3.70
2023-03-29T04:33:29.153Z,3.70
2023-03-29T04:35:56.851Z,3.70
2023-03-29T04:38:23.715Z,3.70
2023-03-29T04:40:50.997Z,3.70
2023-03-29T04:43:18.042Z,3.70
2023-03-29T04:45:45.386Z,3.70
2023-03-29T04:48:12.185Z,3.70
2023-03-29T04:50:39.047Z,3.60
2023-03-29T04:53:07.292Z,3.60
2023-03-29T04:55:34.043Z,3.60
2023-03-29T04:58:01.115Z,3.60
2023-03-29T05:00:28.501Z,3.60
2023-03-29T05:02:55.355Z,3.60
2023-03-29T05:05:22.219Z,3.60
2023-03-29T05:07:49.022Z,3.60
2023-03-29T05:10:16.278Z,3.60
2023-03-29T05:12:43.186Z,3.60
2023-03-29T05:15:10.586Z,3.60
2023-03-29T05:17:37.530Z,3.60
2023-03-29T05:20:10.058Z,3.60
2023-03-29T05:22:38.149Z,3.60
2023-03-29T05:25:06.347Z,3.60
2023-03-29T05:27:33.444Z,3.70
2023-03-29T05:30:01.742Z,3.70
2023-03-29T05:32:29.153Z,3.70
2023-03-29T05:34:55.897Z,3.70
2023-03-29T05:37:22.625Z,3.70
2023-03-29T05:39:49.617Z,3.80
2023-03-29T05:42:19.070Z,3.80
2023-03-29T05:44:45.768Z,3.70
2023-03-29T05:47:12.587Z,3.70
2023-03-29T05:49:39.373Z,3.60
2023-03-29T05:52:06.626Z,3.70
2023-03-29T05:54:33.630Z,3.70
2023-03-29T05:57:00.376Z,3.70
2023-03-29T05:59:29.494Z,3.70
2023-03-29T06:01:56.569Z,3.80
2023-03-29T06:04:24.363Z,3.80
2023-03-29T06:06:52.933Z,3.80
2023-03-29T06:09:19.844Z,3.90
2023-03-29T06:11:46.606Z,4.00
2023-03-29T06:14:16.357Z,4.00
2023-03-29T06:16:43.180Z,4.10
2023-03-29T06:19:09.926Z,4.20
2023-03-29T06:21:36.634Z,4.20
2023-03-29T06:24:04.082Z,4.30
2023-03-29T06:26:31.298Z,4.30
2023-03-29T06:28:58.329Z,4.30
2023-03-29T06:31:25.136Z,4.40
2023-03-29T06:33:51.917Z,4.40
2023-03-29T06:36:20.050Z,4.40
2023-03-29T06:38:47.055Z,4.40
2023-03-29T06:41:14.775Z,4.40
2023-03-29T06:43:41.795Z,4.50
2023-03-29T06:46:11.921Z,4.50
2023-03-29T06:48:40.852Z,4.50
2023-03-29T06:51:08.361Z,4.60
2023-03-29T06:53:36.545Z,4.60
2023-03-29T06:56:10.857Z,4.70
2023-03-29T06:58:37.826Z,4.70
2023-03-29T07:01:05.397Z,4.80
2023-03-29T07:03:34.878Z,4.80
2023-03-29T07:06:09.513Z,4.90
2023-03-29T07:08:43.387Z,4.90
2023-03-29T07:11:14.517Z,4.90
2023-03-29T07:13:42.589Z,5.00
2023-03-29T07:16:14.019Z,5.00
2023-03-29T07:18:43.905Z,5.00
2023-03-29T07:21:12.935Z,5.10
2023-03-29T07:23:40.726Z,5.20
2023-03-29T07:26:08.104Z,5.30
2023-03-29T07:28:37.280Z,5.30
2023-03-29T07:31:10.904Z,5.40
2023-03-29T07:33:39.029Z,5.50
2023-03-29T07:36:06.884Z,5.50
2023-03-29T07:38:34.053Z,5.60
2023-03-29T07:41:07.865Z,5.60
2023-03-29T07:43:35.288Z,5.80
2023-03-29T07:46:04.920Z,5.90
2023-03-29T07:48:33.563Z,6.00
2023-03-29T07:51:00.750Z,6.10
2023-03-29T07:53:29.464Z,6.20
2023-03-29T07:55:57.007Z,6.40
2023-03-29T07:58:23.884Z,6.40
2023-03-29T08:00:50.701Z,6.60
2023-03-29T08:03:17.658Z,6.70
2023-03-29T08:05:44.944Z,6.80
2023-03-29T08:08:12.274Z,7.00
2023-03-29T08:10:39.416Z,7.20
2023-03-29T08:13:08.973Z,7.40
2023-03-29T08:15:39.851Z,7.50
2023-03-29T08:18:07.866Z,7.50
2023-03-29T08:20:34.953Z,7.60
2023-03-29T08:23:01.717Z,7.60
2023-03-29T08:25:28.809Z,7.50
2023-03-29T08:27:55.590Z,7.60
2023-03-29T08:30:22.359Z,7.70
2023-03-29T08:32:51.633Z,7.80
2023-03-29T08:35:22.161Z,7.90
2023-03-29T08:37:48.883Z,8.10
2023-03-29T08:40:26.687Z,8.10
2023-03-29T08:43:18.216Z,8.20
2023-03-29T08:46:22.903Z,8.30
2023-03-29T08:49:02.712Z,8.40
2023-03-29T08:51:39.301Z,8.60
2023-03-29T08:54:15.633Z,8.70
2023-03-29T08:56:46.841Z,8.90
2023-03-29T08:59:28.192Z,9.20
2023-03-29T09:01:59.256Z,9.40
2023-03-29T09:04:34.782Z,9.60
2023-03-29T09:07:09.469Z,9.90
2023-03-29T09:09:37.554Z,9.90
2023-03-29T09:12:36.679Z,10.00
2023-03-29T09:15:19.335Z,10.00
2023-03-29T09:18:11.553Z,10.10
2023-03-29T09:20:53.213Z,10.10
2023-03-29T09:23:52.751Z,10.00
2023-03-29T09:26:34.589Z,10.20
2023-03-29T09:29:25.253Z,10.60
2023-03-29T09:31:55.628Z,11.00
2023-03-29T09:34:43.203Z,11.60
2023-03-29T09:37:29.919Z,12.00
2023-03-29T09:39:57.792Z,12.40
2023-03-29T09:42:29.558Z,12.60
2023-03-29T09:45:08.286Z,12.50
2023-03-29T09:47:57.728Z,12.20
2023-03-29T09:50:47.225Z,12.00
2023-03-29T09:53:16.110Z,12.00
2023-03-29T09:55:48.359Z,12.20
2023-03-29T09:58:19.511Z,12.20
2023-03-29T10:00:48.236Z,12.20
2023-03-29T10:03:31.062Z,12.30
2023-03-29T10:06:02.460Z,12.40
2023-03-29T10:08:41.407Z,12.50
2023-03-29T10:11:20.069Z,12.40
2023-03-29T10:13:50.909Z,12.20
2023-03-29T10:16:38.652Z,12.10
2023-03-29T10:19:35.182Z,12.10
2023-03-29T10:22:07.874Z,12.00
2023-03-29T10:24:34.687Z,12.00
2023-03-29T10:27:06.849Z,11.90
2023-03-29T10:29:42.161Z,11.90
2023-03-29T10:32:38.379Z,11.80
2023-03-29T10:35:43.646Z,11.90
2023-03-29T10:38:16.323Z,11.90
2023-03-29T10:40:46.968Z,12.00
2023-03-29T10:43:19.667Z,12.00
2023-03-29T10:45:53.603Z,12.00
2023-03-29T10:48:28.874Z,12.10
2023-03-29T10:51:00.913Z,12.10
2023-03-29T10:53:32.825Z,12.10
2023-03-29T10:56:34.977Z,12.10
2023-03-29T10:59:27.253Z,12.10
2023-03-29T11:02:14.943Z,12.20
2023-03-29T11:05:39.649Z,12.30
2023-03-29T11:08:17.858Z,12.40
2023-03-29T11:11:08.909Z,12.40
2023-03-29T11:13:50.066Z,12.50
2023-03-29T11:16:46.747Z,12.50
2023-03-29T11:19:55.262Z,12.70
2023-03-29T11:22:42.929Z,12.90
2023-03-29T11:25:41.932Z,13.10
2023-03-29T11:28:44.330Z,13.10
2023-03-29T11:31:37.098Z,13.20
2023-03-29T11:34:41.238Z,13.10
2023-03-29T11:37:28.704Z,13.10
2023-03-29T11:40:15.169Z,13.20
2023-03-29T11:42:48.258Z,13.30
2023-03-29T11:45:44.513Z,13.30
2023-03-29T11:48:22.196Z,13.40
2023-03-29T11:51:23.470Z,13.50
2023-03-29T11:54:34.517Z,13.50
2023-03-29T11:57:30.804Z,13.70
2023-03-29T12:00:22.004Z,13.90
2023-03-29T12:03:06.928Z,13.90
2023-03-29T12:05:52.028Z,14.00
2023-03-29T12:08:37.193Z,14.00
2023-03-29T12:11:19.450Z,13.90
2023-03-29T12:13:55.057Z,14.00
2023-03-29T12:16:54.890Z,14.20
2023-03-29T12:19:43.556Z,14.40
2023-03-29T12:22:10.901Z,14.50
2023-03-29T12:24:43.434Z,14.40
2023-03-29T12:27:34.939Z,14.30
2023-03-29T12:30:29.044Z,14.40
2023-03-29T12:33:29.051Z,14.50
2023-03-29T12:36:21.666Z,14.70
2023-03-29T12:38:53.170Z,14.80
2023-03-29T12:41:24.221Z,14.80
2023-03-29T12:43:51.460Z,14.70
2023-03-29T12:46:33.083Z,14.60
2023-03-29T12:49:25.457Z,14.50
2023-03-29T12:51:57.061Z,14.50
2023-03-29T12:54:30.593Z,14.50
2023-03-29T12:57:25.943Z,14.50
2023-03-29T12:59:53.360Z,14.70
2023-03-29T13:02:33.004Z,14.90
2023-03-29T13:05:04.707Z,15.10
2023-03-29T13:07:47.141Z,15.10
2023-03-29T13:10:42.748Z,15.00
2023-03-29T13:13:24.621Z,14.90
2023-03-29T13:15:51.506Z,14.80
2023-03-29T13:18:33.812Z,14.60
2023-03-29T13:21:37.699Z,14.70
2023-03-29T13:24:46.345Z,15.00
2023-03-29T13:27:27.759Z,15.00
2023-03-29T13:30:23.585Z,14.80
2023-03-29T13:33:40.059Z,14.60
2023-03-29T13:36:16.372Z,14.40
2023-03-29T13:38:51.976Z,14.50
2023-03-29T13:41:40.693Z,14.50
2023-03-29T13:44:22.829Z,14.50
2023-03-29T13:47:02.939Z,14.20
2023-03-29T13:49:34.244Z,14.00
2023-03-29T13:52:22.575Z,13.70
2023-03-29T13:55:22.519Z,13.60
2023-03-29T13:58:14.430Z,13.60
2023-03-29T14:00:53.926Z,13.60
2023-03-29T14:03:29.616Z,13.60
2023-03-29T14:06:01.614Z,13.60
2023-03-29T14:08:39.210Z,13.50
2023-03-29T14:11:12.526Z,13.50
2023-03-29T14:13:39.430Z,13.40
2023-03-29T14:16:12.198Z,13.40
2023-03-29T14:18:44.448Z,13.60
2023-03-29T14:21:14.459Z,13.90
2023-03-29T14:23:46.518Z,14.60
2023-03-29T14:26:20.913Z,15.30
2023-03-29T14:28:56.347Z,15.90
2023-03-29T14:31:32.309Z,16.30
2023-03-29T14:34:02.206Z,16.20
2023-03-29T14:36:33.218Z,16.00
2023-03-29T14:39:15.210Z,15.40
2023-03-29T14:41:50.336Z,14.90
2023-03-29T14:44:21.650Z,14.60
2023-03-29T14:46:48.634Z,14.30
2023-03-29T14:49:19.422Z,14.20
2023-03-29T14:51:47.877Z,14.20
2023-03-29T14:54:27.067Z,14.20
2023-03-29T14:56:54.862Z,14.20
2023-03-29T14:59:37.354Z,14.30
2023-03-29T15:02:22.052Z,14.30
2023-03-29T15:04:57.118Z,14.20
2023-03-29T15:07:28.314Z,14.20
2023-03-29T15:09:59.324Z,14.10
2023-03-29T15:12:31.221Z,14.10
2023-03-29T15:15:00.177Z,14.10
2023-03-29T15:17:51.090Z,14.20
2023-03-29T15:20:29.144Z,14.60
2023-03-29T15:23:22.367Z,14.20
2023-03-29T15:25:58.309Z,14.20
2023-03-29T15:28:34.658Z,14.00
2023-03-29T15:31:10.188Z,13.90
2023-03-29T15:33:40.245Z,13.80
2023-03-29T15:36:10.746Z,13.70
2023-03-29T15:38:44.726Z,13.60
2023-03-29T15:41:14.418Z,13.60
2023-03-29T15:43:41.912Z,13.70
2023-03-29T15:46:13.271Z,13.70
2023-03-29T15:48:40.375Z,13.80
2023-03-29T15:51:07.410Z,13.90
2023-03-29T15:53:35.716Z,14.10
2023-03-29T15:56:07.158Z,14.30
2023-03-29T15:58:35.497Z,14.40
2023-03-29T16:01:34.614Z,14.50
2023-03-29T16:04:16.724Z,14.60
2023-03-29T16:06:46.751Z,14.70
2023-03-29T16:09:13.476Z,14.60
2023-03-29T16:11:42.458Z,14.50
2023-03-29T16:14:27.298Z,14.30
2023-03-29T16:16:55.609Z,14.10
2023-03-29T16:19:23.570Z,13.90
2023-03-29T16:21:50.934Z,13.80
2023-03-29T16:24:22.178Z,13.60
2023-03-29T16:26:49.082Z,13.50
2023-03-29T16:29:17.329Z,13.50
2023-03-29T16:31:46.449Z,13.40
2023-03-29T16:34:14.861Z,13.40
2023-03-29T16:36:43.447Z,13.30
2023-03-29T16:39:10.721Z,13.30
2023-03-29T16:41:37.534Z,13.30
2023-03-29T16:44:04.515Z,13.20
2023-03-29T16:46:31.565Z,13.20
2023-03-29T16:48:58.399Z,13.20
2023-03-29T16:51:25.956Z,13.20
2023-03-29T16:53:52.691Z,13.10
2023-03-29T16:56:19.692Z,13.10
2023-03-29T16:58:47.059Z,13.10
2023-03-29T17:01:17.093Z,13.00
2023-03-29T17:03:44.169Z,13.00
2023-03-29T17:06:12.013Z,12.90
2023-03-29T17:08:39.464Z,12.80
2023-03-29T17:11:07.035Z,12.80
2023-03-29T17:13:33.888Z,12.70
2023-03-29T17:16:01.241Z,12.70
2023-03-29T17:18:28.444Z,12.60
2023-03-29T17:20:59.161Z,12.60
2023-03-29T17:23:26.372Z,12.50
2023-03-29T17:25:55.723Z,12.40
2023-03-29T17:28:23.716Z,12.40
2023-03-29T17:30:50.675Z,12.30
2023-03-29T17:33:19.190Z,12.20
2023-03-29T17:35:48.690Z,12.20
2023-03-29T17:38:15.611Z,12.10
2023-03-29T17:40:42.615Z,12.00
2023-03-29T17:43:09.356Z,12.00
2023-03-29T17:45:36.078Z,11.90
2023-03-29T17:48:05.530Z,11.90
2023-03-29T17:50:33.238Z,11.80
2023-03-29T17:52:59.955Z,11.70
2023-03-29T17:55:27.346Z,11.70
2023-03-29T17:57:54.303Z,11.60
2023-03-29T18:00:21.408Z,11.50
2023-03-29T18:02:48.234Z,11.40
2023-03-29T18:05:15.112Z,11.40
2023-03-29T18:07:41.833Z,11.40
2023-03-29T18:10:09.068Z,11.30
2023-03-29T18:12:36.534Z,11.30
2023-03-29T18:15:03.852Z,11.30
2023-03-29T18:17:31.290Z,11.20
2023-03-29T18:19:58.119Z,11.20
2023-03-29T18:22:24.922Z,11.30
2023-03-29T18:24:51.768Z,11.30
2023-03-29T18:27:18.907Z,11.30
2023-03-29T18:29:45.725Z,11.30
2023-03-29T18:32:13.184Z,11.30
2023-03-29T18:34:40.216Z,11.40
2023-03-29T18:37:09.130Z,11.40
2023-03-29T18:39:35.915Z,11.40
2023-03-29T18:42:03.113Z,11.40
2023-03-29T18:44:29.852Z,11.40
2023-03-29T18:46:56.644Z,11.40
2023-03-29T18:49:25.603Z,11.40
2023-03-29T18:51:52.422Z,11.40
2023-03-29T18:54:19.167Z,11.40
2023-03-29T18:56:46.032Z,11.40
2023-03-29T18:59:12.932Z,11.40
2023-03-29T19:01:39.730Z,11.40
2023-03-29T19:04:06.555Z,11.40
2023-03-29T19:06:33.508Z,11.40
2023-03-29T19:09:02.093Z,11.40
2023-03-29T19:11:29.576Z,11.40
2023-03-29T19:13:56.563Z,11.40
2023-03-29T19:16:23.463Z,11.40
2023-03-29T19:18:50.392Z,11.40
2023-03-29T19:21:17.223Z,11.40
2023-03-29T19:23:44.058Z,11.40
2023-03-29T19:26:11.483Z,11.40
2023-03-29T19:28:38.300Z,11.40
2023-03-29T19:31:05.362Z,11.40
2023-03-29T19:33:33.003Z,11.40
2023-03-29T19:35:59.838Z,11.40
2023-03-29T19:38:27.011Z,11.40
2023-03-29T19:40:53.796Z,11.40
2023-03-29T19:43:20.812Z,11.40
2023-03-29T19:45:49.970Z,11.40
2023-03-29T19:50:47.879Z,11.40
2023-03-29T19:53:14.648Z,11.40
2023-03-29T19:55:44.094Z,11.40
2023-03-29T19:58:10.880Z,11.40
2023-03-29T20:00:38.844Z,11.40
2023-03-29T20:03:10.319Z,11.30
2023-03-29T20:05:38.795Z,11.30
2023-03-29T20:08:07.021Z,11.20
2023-03-29T20:10:35.812Z,11.20
2023-03-29T20:13:02.990Z,11.10
2023-03-29T20:15:29.726Z,11.10
2023-03-29T20:17:59.471Z,11.10
2023-03-29T20:20:26.880Z,11.10
2023-03-29T20:23:04.603Z,11.00
2023-03-29T20:25:32.496Z,10.90
2023-03-29T20:27:59.557Z,10.90
2023-03-29T20:30:26.480Z,10.90
2023-03-29T20:32:53.349Z,10.90
2023-03-29T20:35:20.532Z,10.80
2023-03-29T20:37:47.345Z,10.80
2023-03-29T20:40:15.612Z,10.80
2023-03-29T20:42:42.745Z,10.80
2023-03-29T20:45:18.121Z,10.80
2023-03-29T20:47:50.140Z,10.80
2023-03-29T20:50:18.827Z,10.80
2023-03-29T20:52:45.878Z,10.80
2023-03-29T20:55:13.190Z,10.80
2023-03-29T20:57:42.036Z,10.90
2023-03-29T21:00:12.287Z,10.90
2023-03-29T21:02:39.324Z,10.90
2023-03-29T21:05:08.453Z,10.90
2023-03-29T21:07:35.265Z,10.90
2023-03-29T21:10:02.575Z,10.90
2023-03-29T21:12:29.330Z,11.00
2023-03-29T21:14:56.409Z,11.00
2023-03-29T21:17:23.244Z,11.00
2023-03-29T21:19:50.010Z,11.00
2023-03-29T21:22:17.494Z,11.00
2023-03-29T21:24:44.263Z,11.00
2023-03-29T21:27:11.295Z,11.00
2023-03-29T21:29:38.115Z,11.00
2023-03-29T21:32:05.224Z,11.00
2023-03-29T21:34:34.278Z,11.00
2023-03-29T21:37:01.070Z,11.00
2023-03-29T21:39:28.468Z,11.00
2023-03-29T21:41:55.440Z,11.00
2023-03-29T21:44:22.151Z,11.00
2023-03-29T21:46:48.893Z,11.00
2023-03-29T21:49:15.715Z,11.00
2023-03-29T21:51:42.502Z,10.90
2023-03-29T21:54:11.293Z,10.90
2023-03-29T21:56:38.259Z,10.90
2023-03-29T21:59:05.077Z,10.90
2023-03-29T22:01:31.962Z,10.90
2023-03-29T22:03:58.715Z,10.90
2023-03-29T22:06:25.498Z,10.90
2023-03-29T22:08:52.990Z,10.80
2023-03-29T22:11:20.380Z,10.80
2023-03-29T22:13:47.183Z,10.80
2023-03-29T22:16:16.653Z,10.80
2023-03-29T22:18:46.686Z,10.80
2023-03-29T22:21:23.604Z,10.90
2023-03-29T22:23:56.406Z,10.90
2023-03-29T22:26:28.493Z,10.90
2023-03-29T22:28:57.155Z,10.90
2023-03-29T22:31:26.276Z,10.90
2023-03-29T22:33:53.878Z,10.90
2023-03-29T22:36:28.126Z,10.90
2023-03-29T22:38:55.600Z,10.90
2023-03-29T22:41:24.494Z,10.90
2023-03-29T22:43:52.604Z,10.90
2023-03-29T22:46:20.669Z,10.90
2023-03-29T22:48:47.893Z,10.90
2023-03-29T22:51:16.060Z,10.80
2023-03-29T22:53:42.810Z,10.80
2023-03-29T22:56:10.406Z,10.80
2023-03-29T22:58:37.503Z,10.80
2023-03-29T23:01:06.471Z,10.70
2023-03-29T23:03:33.486Z,10.80
2023-03-29T23:06:04.032Z,10.80
2023-03-29T23:08:33.154Z,10.80
2023-03-29T23:11:00.456Z,10.80
2023-03-29T23:13:29.128Z,10.80
2023-03-29T23:16:00.638Z,10.80
2023-03-29T23:18:30.130Z,10.80
2023-03-29T23:20:58.858Z,10.80
2023-03-29T23:23:27.618Z,10.80
2023-03-29T23:25:58.030Z,10.80
2023-03-29T23:28:30.185Z,10.80
2023-03-29T23:31:11.720Z,10.80
2023-03-29T23:33:42.653Z,10.80
2023-03-29T23:36:14.410Z,10.80
2023-03-29T23:38:42.221Z,10.80
2023-03-29T23:41:12.642Z,10.80
2023-03-29T23:43:42.994Z,10.80
2023-03-29T23:46:13.426Z,10.80
2023-03-29T23:48:44.502Z,10.80
2023-03-29T23:51:11.784Z,10.80
2023-03-29T23:53:38.714Z,10.80
2023-03-29T23:56:06.887Z,10.80
2023-03-29T23:58:37.312Z,10.80
